sensor_id;sensor_type;location;lat;lon;timestamp;temperature;humidity
10344;DHT22;5217;43.960;10.954;2023-07-29T00:00:14;25.20;99.90
10344;DHT22;5217;43.960;10.954;2023-07-29T00:02:43;25.30;99.90
10344;DHT22;5217;43.960;10.954;2023-07-29T00:05:12;25.30;99.90
10344;DHT22;5217;43.960;10.954;2023-07-29T00:07:41;25.30;99.90
10344;DHT22;5217;43.960;10.954;2023-07-29T00:10:09;25.20;99.90
10344;DHT22;5217;43.960;10.954;2023-07-29T00:12:38;25.20;99.90
10344;DHT22;5217;43.960;10.954;2023-07-29T00:15:08;25.20;99.90
10344;DHT22;5217;43.960;10.954;2023-07-29T00:17:37;25.20;99.90
10344;DHT22;5217;43.960;10.954;2023-07-29T00:20:06;25.20;99.90
10344;DHT22;5217;43.960;10.954;2023-07-29T00:22:35;25.20;99.90
10344;DHT22;5217;43.960;10.954;2023-07-29T00:25:05;25.20;99.90
10344;DHT22;5217;43.960;10.954;2023-07-29T00:27:34;25.20;99.90
10344;DHT22;5217;43.960;10.954;2023-07-29T00:30:02;25.20;99.90
10344;DHT22;5217;43.960;10.954;2023-07-29T00:32:33;25.20;99.90
10344;DHT22;5217;43.960;10.954;2023-07-29T00:35:01;25.20;99.90
10344;DHT22;5217;43.960;10.954;2023-07-29T00:37:30;25.10;99.90
10344;DHT22;5217;43.960;10.954;2023-07-29T00:39:58;25.20;99.90
10344;DHT22;5217;43.960;10.954;2023-07-29T00:42:26;25.20;99.90
10344;DHT22;5217;43.960;10.954;2023-07-29T00:44:55;25.10;99.90
10344;DHT22;5217;43.960;10.954;2023-07-29T00:47:24;25.10;99.90
10344;DHT22;5217;43.960;10.954;2023-07-29T00:49:54;25.10;99.90
10344;DHT22;5217;43.960;10.954;2023-07-29T00:52:23;25.00;99.90
10344;DHT22;5217;43.960;10.954;2023-07-29T00:54:51;25.00;99.90
10344;DHT22;5217;43.960;10.954;2023-07-29T00:57:20;25.00;99.90
10344;DHT22;5217;43.960;10.954;2023-07-29T00:59:49;25.00;99.90
10344;DHT22;5217;43.960;10.954;2023-07-29T01:02:18;25.00;99.90
10344;DHT22;5217;43.960;10.954;2023-07-29T01:04:53;25.00;99.90
10344;DHT22;5217;43.960;10.954;2023-07-29T01:07:28;25.00;99.90
10344;DHT22;5217;43.960;10.954;2023-07-29T01:10:01;25.00;99.90
10344;DHT22;5217;43.960;10.954;2023-07-29T01:12:37;25.00;99.90
10344;DHT22;5217;43.960;10.954;2023-07-29T01:15:14;25.00;99.90
10344;DHT22;5217;43.960;10.954;2023-07-29T01:17:48;25.00;99.90
10344;DHT22;5217;43.960;10.954;2023-07-29T01:20:19;25.00;99.90
10344;DHT22;5217;43.960;10.954;2023-07-29T01:22:48;25.00;99.90
10344;DHT22;5217;43.960;10.954;2023-07-29T01:25:18;25.00;99.90
10344;DHT22;5217;43.960;10.954;2023-07-29T01:27:48;25.00;99.90
10344;DHT22;5217;43.960;10.954;2023-07-29T01:30:19;25.00;99.90
10344;DHT22;5217;43.960;10.954;2023-07-29T01:32:54;25.00;99.90
10344;DHT22;5217;43.960;10.954;2023-07-29T01:35:27;25.00;99.90
10344;DHT22;5217;43.960;10.954;2023-07-29T01:38:04;25.00;99.90
10344;DHT22;5217;43.960;10.954;2023-07-29T01:40:34;24.90;99.90
10344;DHT22;5217;43.960;10.954;2023-07-29T01:43:03;24.90;99.90
10344;DHT22;5217;43.960;10.954;2023-07-29T01:45:34;24.90;99.90
10344;DHT22;5217;43.960;10.954;2023-07-29T01:48:05;24.90;99.90
10344;DHT22;5217;43.960;10.954;2023-07-29T01:50:34;24.90;99.90
10344;DHT22;5217;43.960;10.954;2023-07-29T01:53:02;24.90;99.90
10344;DHT22;5217;43.960;10.954;2023-07-29T01:55:30;24.90;99.90
10344;DHT22;5217;43.960;10.954;2023-07-29T01:58:00;24.90;99.90
10344;DHT22;5217;43.960;10.954;2023-07-29T02:00:29;24.90;99.90
10344;DHT22;5217;43.960;10.954;2023-07-29T02:02:57;24.90;99.90
10344;DHT22;5217;43.960;10.954;2023-07-29T02:05:25;24.90;99.90
10344;DHT22;5217;43.960;10.954;2023-07-29T02:07:54;24.90;99.90
10344;DHT22;5217;43.960;10.954;2023-07-29T02:10:22;24.80;99.90
10344;DHT22;5217;43.960;10.954;2023-07-29T02:12:51;24.80;99.90
10344;DHT22;5217;43.960;10.954;2023-07-29T02:15:20;24.80;99.90
10344;DHT22;5217;43.960;10.954;2023-07-29T02:17:50;24.80;99.90
10344;DHT22;5217;43.960;10.954;2023-07-29T02:20:19;24.80;99.90
10344;DHT22;5217;43.960;10.954;2023-07-29T02:22:48;24.80;99.90
10344;DHT22;5217;43.960;10.954;2023-07-29T02:25:17;24.80;99.90
10344;DHT22;5217;43.960;10.954;2023-07-29T02:27:45;24.80;99.90
10344;DHT22;5217;43.960;10.954;2023-07-29T02:30:13;24.70;99.90
10344;DHT22;5217;43.960;10.954;2023-07-29T02:32:43;24.70;99.90
10344;DHT22;5217;43.960;10.954;2023-07-29T02:35:12;24.70;99.90
10344;DHT22;5217;43.960;10.954;2023-07-29T02:37:40;24.70;99.90
10344;DHT22;5217;43.960;10.954;2023-07-29T02:40:09;24.70;99.90
10344;DHT22;5217;43.960;10.954;2023-07-29T02:42:38;24.70;99.90
10344;DHT22;5217;43.960;10.954;2023-07-29T02:45:07;24.70;99.90
10344;DHT22;5217;43.960;10.954;2023-07-29T02:47:37;24.70;99.90
10344;DHT22;5217;43.960;10.954;2023-07-29T02:50:07;24.70;99.90
10344;DHT22;5217;43.960;10.954;2023-07-29T02:52:36;24.70;99.90
10344;DHT22;5217;43.960;10.954;2023-07-29T02:55:06;24.70;99.90
10344;DHT22;5217;43.960;10.954;2023-07-29T02:57:34;24.70;99.90
10344;DHT22;5217;43.960;10.954;2023-07-29T03:00:03;24.80;99.90
10344;DHT22;5217;43.960;10.954;2023-07-29T03:02:34;24.70;99.90
10344;DHT22;5217;43.960;10.954;2023-07-29T03:05:02;24.70;99.90
10344;DHT22;5217;43.960;10.954;2023-07-29T03:07:32;24.70;99.90
10344;DHT22;5217;43.960;10.954;2023-07-29T03:10:01;24.70;99.90
10344;DHT22;5217;43.960;10.954;2023-07-29T03:12:29;24.70;99.90
10344;DHT22;5217;43.960;10.954;2023-07-29T03:14:58;24.70;99.90
10344;DHT22;5217;43.960;10.954;2023-07-29T03:17:27;24.60;99.90
10344;DHT22;5217;43.960;10.954;2023-07-29T03:19:56;24.70;99.90
10344;DHT22;5217;43.960;10.954;2023-07-29T03:22:24;24.60;99.90
10344;DHT22;5217;43.960;10.954;2023-07-29T03:24:54;24.70;99.90
10344;DHT22;5217;43.960;10.954;2023-07-29T03:27:22;24.60;99.90
10344;DHT22;5217;43.960;10.954;2023-07-29T03:29:51;24.60;99.90
10344;DHT22;5217;43.960;10.954;2023-07-29T03:32:19;24.60;99.90
10344;DHT22;5217;43.960;10.954;2023-07-29T03:34:47;24.60;99.90
10344;DHT22;5217;43.960;10.954;2023-07-29T03:37:16;24.60;99.90
10344;DHT22;5217;43.960;10.954;2023-07-29T03:39:44;24.70;99.90
10344;DHT22;5217;43.960;10.954;2023-07-29T03:42:14;24.70;99.90
10344;DHT22;5217;43.960;10.954;2023-07-29T03:44:42;24.70;99.90
10344;DHT22;5217;43.960;10.954;2023-07-29T03:47:10;24.60;99.90
10344;DHT22;5217;43.960;10.954;2023-07-29T03:49:39;24.60;99.90
10344;DHT22;5217;43.960;10.954;2023-07-29T03:52:07;24.60;99.90
10344;DHT22;5217;43.960;10.954;2023-07-29T03:54:36;24.60;99.90
10344;DHT22;5217;43.960;10.954;2023-07-29T03:57:05;24.60;99.90
10344;DHT22;5217;43.960;10.954;2023-07-29T03:59:35;24.60;99.90
10344;DHT22;5217;43.960;10.954;2023-07-29T04:02:03;24.60;99.90
10344;DHT22;5217;43.960;10.954;2023-07-29T04:04:32;24.60;99.90
10344;DHT22;5217;43.960;10.954;2023-07-29T04:07:00;24.60;99.90
10344;DHT22;5217;43.960;10.954;2023-07-29T04:09:28;24.60;99.90
10344;DHT22;5217;43.960;10.954;2023-07-29T04:11:57;24.60;99.90
10344;DHT22;5217;43.960;10.954;2023-07-29T04:14:25;24.60;99.90
10344;DHT22;5217;43.960;10.954;2023-07-29T04:16:55;24.60;99.90
10344;DHT22;5217;43.960;10.954;2023-07-29T04:19:23;24.60;99.90
10344;DHT22;5217;43.960;10.954;2023-07-29T04:21:52;24.60;99.90
10344;DHT22;5217;43.960;10.954;2023-07-29T04:24:20;24.60;99.90
10344;DHT22;5217;43.960;10.954;2023-07-29T04:26:50;24.60;99.90
10344;DHT22;5217;43.960;10.954;2023-07-29T04:29:18;24.50;99.90
10344;DHT22;5217;43.960;10.954;2023-07-29T04:31:46;24.60;99.90
10344;DHT22;5217;43.960;10.954;2023-07-29T04:34:17;24.60;99.90
10344;DHT22;5217;43.960;10.954;2023-07-29T04:36:46;24.60;99.90
10344;DHT22;5217;43.960;10.954;2023-07-29T04:39:14;24.60;99.90
10344;DHT22;5217;43.960;10.954;2023-07-29T04:41:43;24.60;99.90
10344;DHT22;5217;43.960;10.954;2023-07-29T04:44:12;24.60;99.90
10344;DHT22;5217;43.960;10.954;2023-07-29T04:46:40;24.60;99.90
10344;DHT22;5217;43.960;10.954;2023-07-29T04:49:09;24.60;99.90
10344;DHT22;5217;43.960;10.954;2023-07-29T04:51:38;24.60;99.90
10344;DHT22;5217;43.960;10.954;2023-07-29T04:54:07;24.60;99.90
10344;DHT22;5217;43.960;10.954;2023-07-29T04:56:35;24.60;99.90
10344;DHT22;5217;43.960;10.954;2023-07-29T04:59:04;24.60;99.90
10344;DHT22;5217;43.960;10.954;2023-07-29T05:01:34;24.60;99.90
10344;DHT22;5217;43.960;10.954;2023-07-29T05:04:03;24.60;99.90
10344;DHT22;5217;43.960;10.954;2023-07-29T05:06:32;24.60;99.90
10344;DHT22;5217;43.960;10.954;2023-07-29T05:09:14;24.60;99.90
10344;DHT22;5217;43.960;10.954;2023-07-29T05:11:43;24.60;99.90
10344;DHT22;5217;43.960;10.954;2023-07-29T05:14:13;24.60;99.90
10344;DHT22;5217;43.960;10.954;2023-07-29T05:16:41;24.60;99.90
10344;DHT22;5217;43.960;10.954;2023-07-29T05:19:10;24.60;99.90
10344;DHT22;5217;43.960;10.954;2023-07-29T05:21:39;24.70;99.90
10344;DHT22;5217;43.960;10.954;2023-07-29T05:24:07;24.70;99.90
10344;DHT22;5217;43.960;10.954;2023-07-29T05:26:37;24.70;99.90
10344;DHT22;5217;43.960;10.954;2023-07-29T05:29:06;24.70;99.90
10344;DHT22;5217;43.960;10.954;2023-07-29T05:31:34;24.70;99.90
10344;DHT22;5217;43.960;10.954;2023-07-29T05:34:02;24.70;99.90
10344;DHT22;5217;43.960;10.954;2023-07-29T05:36:31;24.70;99.90
10344;DHT22;5217;43.960;10.954;2023-07-29T05:38:59;24.70;99.90
10344;DHT22;5217;43.960;10.954;2023-07-29T05:41:28;24.70;99.90
10344;DHT22;5217;43.960;10.954;2023-07-29T05:43:58;24.70;99.90
10344;DHT22;5217;43.960;10.954;2023-07-29T05:46:26;24.70;99.90
10344;DHT22;5217;43.960;10.954;2023-07-29T05:48:55;24.70;99.90
10344;DHT22;5217;43.960;10.954;2023-07-29T05:51:23;24.70;99.90
10344;DHT22;5217;43.960;10.954;2023-07-29T05:53:51;24.70;99.90
10344;DHT22;5217;43.960;10.954;2023-07-29T05:56:20;24.70;99.90
10344;DHT22;5217;43.960;10.954;2023-07-29T05:58:48;24.70;99.90
10344;DHT22;5217;43.960;10.954;2023-07-29T06:01:19;24.70;99.90
10344;DHT22;5217;43.960;10.954;2023-07-29T06:03:49;24.70;99.90
10344;DHT22;5217;43.960;10.954;2023-07-29T06:06:17;24.80;99.90
10344;DHT22;5217;43.960;10.954;2023-07-29T06:08:45;24.80;99.90
10344;DHT22;5217;43.960;10.954;2023-07-29T06:11:14;24.80;99.90
10344;DHT22;5217;43.960;10.954;2023-07-29T06:13:42;24.80;99.90
10344;DHT22;5217;43.960;10.954;2023-07-29T06:16:10;24.80;99.90
10344;DHT22;5217;43.960;10.954;2023-07-29T06:18:40;24.80;99.90
10344;DHT22;5217;43.960;10.954;2023-07-29T06:21:08;24.80;99.90
10344;DHT22;5217;43.960;10.954;2023-07-29T06:23:39;24.80;99.90
10344;DHT22;5217;43.960;10.954;2023-07-29T06:26:07;24.80;99.90
10344;DHT22;5217;43.960;10.954;2023-07-29T06:28:36;24.90;99.90
10344;DHT22;5217;43.960;10.954;2023-07-29T06:31:04;24.90;99.90
10344;DHT22;5217;43.960;10.954;2023-07-29T06:33:33;24.90;99.90
10344;DHT22;5217;43.960;10.954;2023-07-29T06:36:03;24.90;99.90
10344;DHT22;5217;43.960;10.954;2023-07-29T06:38:31;24.90;99.90
10344;DHT22;5217;43.960;10.954;2023-07-29T06:41:00;24.90;99.90
10344;DHT22;5217;43.960;10.954;2023-07-29T06:43:28;24.90;99.90
10344;DHT22;5217;43.960;10.954;2023-07-29T06:45:56;24.90;99.90
10344;DHT22;5217;43.960;10.954;2023-07-29T06:48:25;24.90;99.90
10344;DHT22;5217;43.960;10.954;2023-07-29T06:50:53;24.90;99.90
10344;DHT22;5217;43.960;10.954;2023-07-29T06:53:23;24.90;99.90
10344;DHT22;5217;43.960;10.954;2023-07-29T06:55:52;25.00;99.90
10344;DHT22;5217;43.960;10.954;2023-07-29T06:58:20;24.90;99.90
10344;DHT22;5217;43.960;10.954;2023-07-29T07:00:49;25.00;99.90
10344;DHT22;5217;43.960;10.954;2023-07-29T07:03:17;25.00;99.90
10344;DHT22;5217;43.960;10.954;2023-07-29T07:05:46;25.00;99.90
10344;DHT22;5217;43.960;10.954;2023-07-29T07:08:14;25.00;99.90
10344;DHT22;5217;43.960;10.954;2023-07-29T07:10:44;25.00;99.90
10344;DHT22;5217;43.960;10.954;2023-07-29T07:13:14;25.00;99.90
10344;DHT22;5217;43.960;10.954;2023-07-29T07:15:43;25.00;99.90
10344;DHT22;5217;43.960;10.954;2023-07-29T07:24:28;25.00;99.90
10344;DHT22;5217;43.960;10.954;2023-07-29T07:26:56;24.90;99.90
10344;DHT22;5217;43.960;10.954;2023-07-29T07:29:25;24.90;99.90
10344;DHT22;5217;43.960;10.954;2023-07-29T07:31:54;24.90;99.90
10344;DHT22;5217;43.960;10.954;2023-07-29T07:34:23;25.00;99.90
10344;DHT22;5217;43.960;10.954;2023-07-29T07:36:51;25.00;99.90
10344;DHT22;5217;43.960;10.954;2023-07-29T07:39:19;25.00;99.90
10344;DHT22;5217;43.960;10.954;2023-07-29T07:54:27;25.00;99.90
10344;DHT22;5217;43.960;10.954;2023-07-29T07:56:56;25.10;99.90
10344;DHT22;5217;43.960;10.954;2023-07-29T07:59:26;25.10;99.90
10344;DHT22;5217;43.960;10.954;2023-07-29T08:01:55;25.10;99.90
10344;DHT22;5217;43.960;10.954;2023-07-29T08:04:23;25.10;99.90
10344;DHT22;5217;43.960;10.954;2023-07-29T08:06:51;25.10;99.90
10344;DHT22;5217;43.960;10.954;2023-07-29T08:09:20;25.10;99.90
10344;DHT22;5217;43.960;10.954;2023-07-29T08:11:49;25.10;99.90
10344;DHT22;5217;43.960;10.954;2023-07-29T08:14:18;25.10;99.90
10344;DHT22;5217;43.960;10.954;2023-07-29T08:16:46;25.10;99.90
10344;DHT22;5217;43.960;10.954;2023-07-29T08:19:15;25.10;99.90
10344;DHT22;5217;43.960;10.954;2023-07-29T08:21:43;25.10;99.90
10344;DHT22;5217;43.960;10.954;2023-07-29T08:24:12;25.20;99.90
10344;DHT22;5217;43.960;10.954;2023-07-29T08:26:40;25.20;99.90
10344;DHT22;5217;43.960;10.954;2023-07-29T08:29:10;25.20;99.90
10344;DHT22;5217;43.960;10.954;2023-07-29T08:31:39;25.20;99.90
10344;DHT22;5217;43.960;10.954;2023-07-29T08:34:07;25.20;99.90
10344;DHT22;5217;43.960;10.954;2023-07-29T08:36:36;25.30;99.90
10344;DHT22;5217;43.960;10.954;2023-07-29T08:39:05;25.30;99.90
10344;DHT22;5217;43.960;10.954;2023-07-29T08:41:40;25.30;99.90
10344;DHT22;5217;43.960;10.954;2023-07-29T08:44:15;25.30;99.90
10344;DHT22;5217;43.960;10.954;2023-07-29T08:46:45;25.30;99.90
10344;DHT22;5217;43.960;10.954;2023-07-29T08:49:16;25.30;99.90
10344;DHT22;5217;43.960;10.954;2023-07-29T08:51:47;25.30;99.90
10344;DHT22;5217;43.960;10.954;2023-07-29T08:54:16;25.40;99.90
10344;DHT22;5217;43.960;10.954;2023-07-29T08:56:45;25.40;99.90
10344;DHT22;5217;43.960;10.954;2023-07-29T08:59:16;25.40;99.90
10344;DHT22;5217;43.960;10.954;2023-07-29T09:01:45;25.50;99.90
10344;DHT22;5217;43.960;10.954;2023-07-29T09:04:15;25.50;99.90
10344;DHT22;5217;43.960;10.954;2023-07-29T09:06:46;25.50;99.90
10344;DHT22;5217;43.960;10.954;2023-07-29T09:09:15;25.50;99.90
10344;DHT22;5217;43.960;10.954;2023-07-29T09:11:43;25.60;99.90
10344;DHT22;5217;43.960;10.954;2023-07-29T09:14:14;25.60;99.90
10344;DHT22;5217;43.960;10.954;2023-07-29T09:16:43;25.70;99.90
10344;DHT22;5217;43.960;10.954;2023-07-29T09:19:12;25.70;99.90
10344;DHT22;5217;43.960;10.954;2023-07-29T09:21:42;25.70;99.90
10344;DHT22;5217;43.960;10.954;2023-07-29T09:24:12;25.70;99.90
10344;DHT22;5217;43.960;10.954;2023-07-29T09:26:41;25.70;99.90
10344;DHT22;5217;43.960;10.954;2023-07-29T09:29:22;25.70;99.90
10344;DHT22;5217;43.960;10.954;2023-07-29T09:31:51;25.70;99.90
10344;DHT22;5217;43.960;10.954;2023-07-29T09:34:19;25.70;99.90
10344;DHT22;5217;43.960;10.954;2023-07-29T09:36:50;25.70;99.90
10344;DHT22;5217;43.960;10.954;2023-07-29T09:39:23;25.80;99.90
10344;DHT22;5217;43.960;10.954;2023-07-29T09:41:52;25.80;99.90
10344;DHT22;5217;43.960;10.954;2023-07-29T09:44:22;25.80;99.90
10344;DHT22;5217;43.960;10.954;2023-07-29T09:46:50;25.80;99.90
10344;DHT22;5217;43.960;10.954;2023-07-29T09:49:19;25.80;99.90
10344;DHT22;5217;43.960;10.954;2023-07-29T09:51:47;25.80;99.90
10344;DHT22;5217;43.960;10.954;2023-07-29T09:54:17;25.80;99.90
10344;DHT22;5217;43.960;10.954;2023-07-29T09:56:46;25.80;99.90
10344;DHT22;5217;43.960;10.954;2023-07-29T09:59:19;25.90;99.90
10344;DHT22;5217;43.960;10.954;2023-07-29T10:01:48;25.90;99.90
10344;DHT22;5217;43.960;10.954;2023-07-29T10:04:17;25.90;99.90
10344;DHT22;5217;43.960;10.954;2023-07-29T10:06:47;26.00;99.90
10344;DHT22;5217;43.960;10.954;2023-07-29T10:09:17;26.00;99.90
10344;DHT22;5217;43.960;10.954;2023-07-29T10:11:48;26.00;99.90
10344;DHT22;5217;43.960;10.954;2023-07-29T10:14:18;26.00;99.90
10344;DHT22;5217;43.960;10.954;2023-07-29T10:16:49;26.10;99.90
10344;DHT22;5217;43.960;10.954;2023-07-29T10:19:18;26.10;99.90
10344;DHT22;5217;43.960;10.954;2023-07-29T10:21:47;26.10;99.90
10344;DHT22;5217;43.960;10.954;2023-07-29T10:24:19;26.20;99.90
10344;DHT22;5217;43.960;10.954;2023-07-29T10:26:57;26.20;99.90
10344;DHT22;5217;43.960;10.954;2023-07-29T10:29:31;26.20;99.90
10344;DHT22;5217;43.960;10.954;2023-07-29T10:32:03;26.20;99.90
10344;DHT22;5217;43.960;10.954;2023-07-29T10:34:33;26.20;99.90
10344;DHT22;5217;43.960;10.954;2023-07-29T10:37:03;26.20;99.90
10344;DHT22;5217;43.960;10.954;2023-07-29T10:39:38;26.20;99.90
10344;DHT22;5217;43.960;10.954;2023-07-29T10:42:07;26.20;99.90
10344;DHT22;5217;43.960;10.954;2023-07-29T10:44:49;26.20;99.90
10344;DHT22;5217;43.960;10.954;2023-07-29T10:47:22;26.30;99.90
10344;DHT22;5217;43.960;10.954;2023-07-29T10:49:53;26.20;99.90
10344;DHT22;5217;43.960;10.954;2023-07-29T10:52:30;26.30;99.90
10344;DHT22;5217;43.960;10.954;2023-07-29T10:55:00;26.40;99.90
10344;DHT22;5217;43.960;10.954;2023-07-29T10:57:32;26.40;99.90
10344;DHT22;5217;43.960;10.954;2023-07-29T11:00:02;26.40;99.90
10344;DHT22;5217;43.960;10.954;2023-07-29T11:02:35;26.50;99.90
10344;DHT22;5217;43.960;10.954;2023-07-29T11:05:05;26.50;99.90
10344;DHT22;5217;43.960;10.954;2023-07-29T11:07:44;26.50;99.90
10344;DHT22;5217;43.960;10.954;2023-07-29T11:10:13;26.60;99.90
10344;DHT22;5217;43.960;10.954;2023-07-29T11:12:44;26.60;99.90
10344;DHT22;5217;43.960;10.954;2023-07-29T11:15:20;26.60;99.90
10344;DHT22;5217;43.960;10.954;2023-07-29T11:17:52;26.60;99.90
10344;DHT22;5217;43.960;10.954;2023-07-29T11:20:22;26.70;99.90
10344;DHT22;5217;43.960;10.954;2023-07-29T11:22:52;26.70;99.90
10344;DHT22;5217;43.960;10.954;2023-07-29T11:25:22;26.70;99.90
10344;DHT22;5217;43.960;10.954;2023-07-29T11:27:52;26.80;99.90
10344;DHT22;5217;43.960;10.954;2023-07-29T11:30:21;26.70;99.90
10344;DHT22;5217;43.960;10.954;2023-07-29T11:32:53;26.80;99.90
10344;DHT22;5217;43.960;10.954;2023-07-29T11:35:23;26.80;99.90
10344;DHT22;5217;43.960;10.954;2023-07-29T11:37:53;26.80;99.90
10344;DHT22;5217;43.960;10.954;2023-07-29T11:40:24;26.90;99.90
10344;DHT22;5217;43.960;10.954;2023-07-29T11:42:53;26.90;99.90
10344;DHT22;5217;43.960;10.954;2023-07-29T11:45:22;26.90;99.90
10344;DHT22;5217;43.960;10.954;2023-07-29T11:48:06;27.00;99.90
10344;DHT22;5217;43.960;10.954;2023-07-29T11:50:35;27.00;99.90
10344;DHT22;5217;43.960;10.954;2023-07-29T11:53:06;27.00;99.90
10344;DHT22;5217;43.960;10.954;2023-07-29T11:55:37;27.00;99.90
10344;DHT22;5217;43.960;10.954;2023-07-29T11:58:06;27.00;99.90
10344;DHT22;5217;43.960;10.954;2023-07-29T12:00:35;27.00;99.90
10344;DHT22;5217;43.960;10.954;2023-07-29T12:03:03;27.10;99.90
10344;DHT22;5217;43.960;10.954;2023-07-29T12:05:34;27.10;99.90
10344;DHT22;5217;43.960;10.954;2023-07-29T12:08:02;27.10;99.90
10344;DHT22;5217;43.960;10.954;2023-07-29T12:10:31;27.10;99.90
10344;DHT22;5217;43.960;10.954;2023-07-29T12:13:02;27.20;99.90
10344;DHT22;5217;43.960;10.954;2023-07-29T12:15:31;27.10;99.90
10344;DHT22;5217;43.960;10.954;2023-07-29T12:17:59;27.20;99.90
10344;DHT22;5217;43.960;10.954;2023-07-29T12:20:29;27.20;99.90
10344;DHT22;5217;43.960;10.954;2023-07-29T12:22:59;27.20;99.90
10344;DHT22;5217;43.960;10.954;2023-07-29T12:25:30;27.20;99.90
10344;DHT22;5217;43.960;10.954;2023-07-29T12:28:02;27.20;99.90
10344;DHT22;5217;43.960;10.954;2023-07-29T12:30:31;27.20;99.90
10344;DHT22;5217;43.960;10.954;2023-07-29T12:33:00;27.30;99.90
10344;DHT22;5217;43.960;10.954;2023-07-29T12:35:38;27.30;99.90
10344;DHT22;5217;43.960;10.954;2023-07-29T12:38:08;27.30;99.90
10344;DHT22;5217;43.960;10.954;2023-07-29T12:40:38;27.40;99.90
10344;DHT22;5217;43.960;10.954;2023-07-29T12:43:09;27.40;99.90
10344;DHT22;5217;43.960;10.954;2023-07-29T12:45:37;27.40;99.90
10344;DHT22;5217;43.960;10.954;2023-07-29T12:48:08;27.40;99.90
10344;DHT22;5217;43.960;10.954;2023-07-29T12:50:37;27.40;99.90
10344;DHT22;5217;43.960;10.954;2023-07-29T12:53:09;27.40;99.90
10344;DHT22;5217;43.960;10.954;2023-07-29T12:55:38;27.40;99.90
10344;DHT22;5217;43.960;10.954;2023-07-29T12:58:07;27.50;99.90
10344;DHT22;5217;43.960;10.954;2023-07-29T13:00:35;27.50;99.90
10344;DHT22;5217;43.960;10.954;2023-07-29T13:03:04;27.50;99.90
10344;DHT22;5217;43.960;10.954;2023-07-29T13:05:33;27.50;99.90
10344;DHT22;5217;43.960;10.954;2023-07-29T13:08:02;27.50;99.90
10344;DHT22;5217;43.960;10.954;2023-07-29T13:10:34;27.60;99.90
10344;DHT22;5217;43.960;10.954;2023-07-29T13:13:02;27.60;99.90
10344;DHT22;5217;43.960;10.954;2023-07-29T13:15:31;27.60;99.90
10344;DHT22;5217;43.960;10.954;2023-07-29T13:17:59;27.60;99.90
10344;DHT22;5217;43.960;10.954;2023-07-29T13:20:27;27.60;99.90
10344;DHT22;5217;43.960;10.954;2023-07-29T13:22:56;27.60;99.90
10344;DHT22;5217;43.960;10.954;2023-07-29T13:25:25;27.60;99.90
10344;DHT22;5217;43.960;10.954;2023-07-29T13:27:55;27.70;99.90
10344;DHT22;5217;43.960;10.954;2023-07-29T13:30:23;27.70;99.90
10344;DHT22;5217;43.960;10.954;2023-07-29T13:32:52;27.70;99.90
10344;DHT22;5217;43.960;10.954;2023-07-29T13:35:21;27.70;99.90
10344;DHT22;5217;43.960;10.954;2023-07-29T13:37:50;27.70;99.90
10344;DHT22;5217;43.960;10.954;2023-07-29T13:40:18;27.70;99.90
10344;DHT22;5217;43.960;10.954;2023-07-29T13:42:47;27.70;99.90
10344;DHT22;5217;43.960;10.954;2023-07-29T13:45:17;27.80;99.90
10344;DHT22;5217;43.960;10.954;2023-07-29T13:47:46;27.70;99.90
10344;DHT22;5217;43.960;10.954;2023-07-29T13:50:15;27.80;99.90
10344;DHT22;5217;43.960;10.954;2023-07-29T13:52:44;27.80;99.90
10344;DHT22;5217;43.960;10.954;2023-07-29T13:55:13;27.80;99.90
10344;DHT22;5217;43.960;10.954;2023-07-29T13:57:42;27.80;99.90
10344;DHT22;5217;43.960;10.954;2023-07-29T14:00:11;27.90;99.90
10344;DHT22;5217;43.960;10.954;2023-07-29T14:02:41;27.80;99.90
10344;DHT22;5217;43.960;10.954;2023-07-29T14:05:10;27.80;99.90
10344;DHT22;5217;43.960;10.954;2023-07-29T14:07:40;27.90;99.90
10344;DHT22;5217;43.960;10.954;2023-07-29T14:10:08;27.90;99.90
10344;DHT22;5217;43.960;10.954;2023-07-29T14:12:41;27.90;99.90
10344;DHT22;5217;43.960;10.954;2023-07-29T14:15:10;27.90;99.90
10344;DHT22;5217;43.960;10.954;2023-07-29T14:17:38;27.90;99.90
10344;DHT22;5217;43.960;10.954;2023-07-29T14:20:10;27.90;99.90
10344;DHT22;5217;43.960;10.954;2023-07-29T14:22:39;27.90;99.90
10344;DHT22;5217;43.960;10.954;2023-07-29T14:25:08;27.90;99.90
10344;DHT22;5217;43.960;10.954;2023-07-29T14:27:38;27.90;99.90
10344;DHT22;5217;43.960;10.954;2023-07-29T14:30:07;27.90;99.90
10344;DHT22;5217;43.960;10.954;2023-07-29T14:32:36;28.00;99.90
10344;DHT22;5217;43.960;10.954;2023-07-29T14:35:05;28.00;99.90
10344;DHT22;5217;43.960;10.954;2023-07-29T14:37:36;28.00;99.90
10344;DHT22;5217;43.960;10.954;2023-07-29T14:40:07;28.00;99.90
10344;DHT22;5217;43.960;10.954;2023-07-29T14:42:36;28.00;99.90
10344;DHT22;5217;43.960;10.954;2023-07-29T14:45:07;28.00;99.90
10344;DHT22;5217;43.960;10.954;2023-07-29T14:47:36;28.00;99.90
10344;DHT22;5217;43.960;10.954;2023-07-29T14:50:06;28.00;99.90
10344;DHT22;5217;43.960;10.954;2023-07-29T14:52:36;28.00;99.90
10344;DHT22;5217;43.960;10.954;2023-07-29T14:55:05;28.00;99.90
10344;DHT22;5217;43.960;10.954;2023-07-29T14:57:33;28.00;99.90
10344;DHT22;5217;43.960;10.954;2023-07-29T15:00:03;28.00;99.90
10344;DHT22;5217;43.960;10.954;2023-07-29T15:02:31;28.10;99.90
10344;DHT22;5217;43.960;10.954;2023-07-29T15:05:00;28.00;99.90
10344;DHT22;5217;43.960;10.954;2023-07-29T15:07:28;28.00;99.90
10344;DHT22;5217;43.960;10.954;2023-07-29T15:09:59;28.10;99.90
10344;DHT22;5217;43.960;10.954;2023-07-29T15:12:27;28.10;99.90
10344;DHT22;5217;43.960;10.954;2023-07-29T15:14:56;28.00;99.90
10344;DHT22;5217;43.960;10.954;2023-07-29T15:17:24;28.10;99.90
10344;DHT22;5217;43.960;10.954;2023-07-29T15:19:53;28.00;99.90
10344;DHT22;5217;43.960;10.954;2023-07-29T15:22:21;28.10;99.90
10344;DHT22;5217;43.960;10.954;2023-07-29T15:24:50;28.10;99.90
10344;DHT22;5217;43.960;10.954;2023-07-29T15:27:19;28.10;99.90
10344;DHT22;5217;43.960;10.954;2023-07-29T15:29:49;28.10;99.90
10344;DHT22;5217;43.960;10.954;2023-07-29T15:32:17;28.10;99.90
10344;DHT22;5217;43.960;10.954;2023-07-29T15:34:47;28.10;99.90
10344;DHT22;5217;43.960;10.954;2023-07-29T15:37:16;28.10;99.90
10344;DHT22;5217;43.960;10.954;2023-07-29T15:39:45;28.10;99.90
10344;DHT22;5217;43.960;10.954;2023-07-29T15:42:13;28.00;99.90
10344;DHT22;5217;43.960;10.954;2023-07-29T15:44:44;28.00;99.90
10344;DHT22;5217;43.960;10.954;2023-07-29T15:47:12;28.10;99.90
10344;DHT22;5217;43.960;10.954;2023-07-29T15:49:42;28.00;99.90
10344;DHT22;5217;43.960;10.954;2023-07-29T15:52:12;28.00;99.90
10344;DHT22;5217;43.960;10.954;2023-07-29T15:54:44;28.00;99.90
10344;DHT22;5217;43.960;10.954;2023-07-29T15:57:12;28.00;99.90
10344;DHT22;5217;43.960;10.954;2023-07-29T15:59:41;28.00;99.90
10344;DHT22;5217;43.960;10.954;2023-07-29T16:02:11;28.00;99.90